Time,TemperatureF,DewpointF,PressureIn,WindDirection,WindDirectionDegrees,WindSpeedMPH,WindSpeedGustMPH,Humidity,HourlyPrecipIn,Conditions,Clouds,dailyrainin,SoftwareType,DateUTC
2013-01-04 00:03:00,33.8,23.0,30.45,ESE,105,2.0,7.0,65,0.00,,,0.00,weatherlink.com 1.10,2013-01-04 05:03:00,
2013-01-04 00:18:00,33.5,23.0,30.45,NW,325,3.0,6.0,65,0.00,,,0.00,weatherlink.com 1.10,2013-01-04 05:18:00,
2013-01-04 00:33:00,33.2,22.0,30.45,NNW,334,3.0,8.0,64,0.00,,,0.00,weatherlink.com 1.10,2013-01-04 05:33:00,
2013-01-04 00:48:00,32.9,22.0,30.45,NNW,343,6.0,9.0,64,0.00,,,0.00,weatherlink.com 1.10,2013-01-04 05:48:00,
2013-01-04 01:03:00,32.5,21.0,30.44,SW,226,2.0,7.0,64,0.00,,,0.00,weatherlink.com 1.10,2013-01-04 06:03:00,
2013-01-04 01:18:00,32.6,22.0,30.44,NNE,20,4.0,12.0,64,0.00,,,0.00,weatherlink.com 1.10,2013-01-04 06:18:00,
2013-01-04 01:33:00,32.5,21.0,30.44,NNW,343,2.0,7.0,64,0.00,,,0.00,weatherlink.com 1.10,2013-01-04 06:33:00,
2013-01-04 01:48:00,32.3,22.0,30.44,WNW,288,1.0,8.0,65,0.00,,,0.00,weatherlink.com 1.10,2013-01-04 06:48:00,
2013-01-04 02:03:00,32.2,22.0,30.44,North,354,4.0,7.0,65,0.00,,,0.00,weatherlink.com 1.10,2013-01-04 07:03:00,
2013-01-04 02:18:00,31.8,22.0,30.45,WNW,295,0.0,5.0,66,0.00,,,0.00,weatherlink.com 1.10,2013-01-04 07:18:00,
2013-01-04 02:33:00,31.7,21.0,30.45,North,349,3.0,6.0,66,0.00,,,0.00,weatherlink.com 1.10,2013-01-04 07:33:00,
2013-01-04 02:48:00,31.8,21.0,30.45,NW,326,0.0,6.0,65,0.00,,,0.00,weatherlink.com 1.10,2013-01-04 07:48:00,
2013-01-04 03:03:00,31.7,21.0,30.45,North,4,1.0,2.0,66,0.00,,,0.00,weatherlink.com 1.10,2013-01-04 08:03:00,
2013-01-04 03:18:00,31.4,22.0,30.45,NNW,347,4.0,4.0,67,0.00,,,0.00,weatherlink.com 1.10,2013-01-04 08:18:00,
2013-01-04 03:33:00,31.3,21.0,30.45,NNW,342,2.0,6.0,67,0.00,,,0.00,weatherlink.com 1.10,2013-01-04 08:33:00,
2013-01-04 03:48:00,31.0,22.0,30.44,NE,40,1.0,4.0,68,0.00,,,0.00,weatherlink.com 1.10,2013-01-04 08:48:00,
2013-01-04 04:03:00,31.0,22.0,30.44,ENE,58,0.0,1.0,68,0.00,,,0.00,weatherlink.com 1.10,2013-01-04 09:03:00,
2013-01-04 04:18:00,30.6,22.0,30.44,NNE,31,1.0,2.0,69,0.00,,,0.00,weatherlink.com 1.10,2013-01-04 09:18:00,
2013-01-04 04:33:00,30.4,22.0,30.45,North,350,2.0,3.0,70,0.00,,,0.00,weatherlink.com 1.10,2013-01-04 09:33:00,
2013-01-04 04:48:00,30.2,22.0,30.44,NNW,333,1.0,3.0,70,0.00,,,0.00,weatherlink.com 1.10,2013-01-04 09:48:00,
2013-01-04 05:03:00,30.0,22.0,30.44,North,359,1.0,2.0,71,0.00,,,0.00,weatherlink.com 1.10,2013-01-04 10:03:00,
2013-01-04 05:18:00,29.7,22.0,30.45,North,359,0.0,1.0,72,0.00,,,0.00,weatherlink.com 1.10,2013-01-04 10:18:00,
2013-01-04 05:33:00,29.6,22.0,30.45,NW,311,0.0,1.0,72,0.00,,,0.00,weatherlink.com 1.10,2013-01-04 10:33:00,
2013-01-04 05:48:00,29.4,21.0,30.45,North,355,0.0,1.0,72,0.00,,,0.00,weatherlink.com 1.10,2013-01-04 10:48:00,
2013-01-04 06:03:00,29.5,22.0,30.46,North,355,0.0,1.0,72,0.00,,,0.00,weatherlink.com 1.10,2013-01-04 11:03:00,
2013-01-04 06:18:00,29.5,22.0,30.46,North,356,1.0,2.0,72,0.00,,,0.00,weatherlink.com 1.10,2013-01-04 11:18:00,
2013-01-04 06:33:00,29.2,22.0,30.46,NNW,335,1.0,2.0,73,0.00,,,0.00,weatherlink.com 1.10,2013-01-04 11:33:00,
2013-01-04 06:49:00,29.7,21.0,30.47,NE,41,2.0,3.0,71,0.00,,,0.00,weatherlink.com 1.10,2013-01-04 11:49:00,
2013-01-04 07:04:00,29.5,22.0,30.48,NNW,348,3.0,5.0,72,0.00,,,0.00,weatherlink.com 1.10,2013-01-04 12:04:00,
2013-01-04 07:19:00,29.2,22.0,30.48,NNW,345,2.0,7.0,73,0.00,,,0.00,weatherlink.com 1.10,2013-01-04 12:19:00,
2013-01-04 07:34:00,29.1,22.0,30.50,WNW,288,1.0,6.0,74,0.00,,,0.00,weatherlink.com 1.10,2013-01-04 12:34:00,
2013-01-04 07:49:00,29.2,22.0,30.49,North,7,3.0,6.0,74,0.00,,,0.00,weatherlink.com 1.10,2013-01-04 12:49:00,
2013-01-04 08:04:00,29.2,22.0,30.50,NW,325,2.0,5.0,74,0.00,,,0.00,weatherlink.com 1.10,2013-01-04 13:04:00,
2013-01-04 08:19:00,29.9,22.0,30.50,NNE,28,0.0,2.0,73,0.00,,,0.00,weatherlink.com 1.10,2013-01-04 13:19:00,
2013-01-04 08:34:00,29.6,22.0,30.50,NNE,27,1.0,3.0,74,0.00,,,0.00,weatherlink.com 1.10,2013-01-04 13:34:00,
2013-01-04 08:49:00,30.1,22.0,30.50,North,359,1.0,4.0,73,0.00,,,0.00,weatherlink.com 1.10,2013-01-04 13:49:00,
2013-01-04 09:04:00,30.9,23.0,30.50,North,352,0.0,2.0,72,0.00,,,0.00,weatherlink.com 1.10,2013-01-04 14:04:00,
2013-01-04 09:19:00,32.3,23.0,30.50,NNE,33,1.0,2.0,69,0.00,,,0.00,weatherlink.com 1.10,2013-01-04 14:19:00,
2013-01-04 09:34:00,32.0,23.0,30.52,NE,36,2.0,4.0,70,0.00,,,0.00,weatherlink.com 1.10,2013-01-04 14:34:00,
2013-01-04 09:49:00,32.5,23.0,30.52,North,8,0.0,2.0,69,0.00,,,0.00,weatherlink.com 1.10,2013-01-04 14:49:00,
2013-01-04 10:04:00,33.5,24.0,30.52,NNW,335,1.0,3.0,67,0.00,,,0.00,weatherlink.com 1.10,2013-01-04 15:04:00,
2013-01-04 10:19:00,34.0,24.0,30.53,NNE,32,0.0,2.0,66,0.00,,,0.00,weatherlink.com 1.10,2013-01-04 15:19:00,
2013-01-04 10:34:00,35.2,24.0,30.53,ENE,65,1.0,2.0,63,0.00,,,0.00,weatherlink.com 1.10,2013-01-04 15:34:00,
2013-01-04 10:49:00,35.9,24.0,30.52,East,98,2.0,3.0,62,0.00,,,0.00,weatherlink.com 1.10,2013-01-04 15:49:00,
2013-01-04 11:04:00,37.6,23.0,30.53,North,4,0.0,6.0,57,0.00,,,0.00,weatherlink.com 1.10,2013-01-04 16:04:00,
2013-01-04 11:19:00,36.5,23.0,30.53,NE,48,0.0,5.0,58,0.00,,,0.00,weatherlink.com 1.10,2013-01-04 16:19:00,
2013-01-04 11:34:00,37.4,23.0,30.53,NNW,346,0.0,5.0,57,0.00,,,0.00,weatherlink.com 1.10,2013-01-04 16:34:00,
2013-01-04 11:49:00,38.1,23.0,30.52,WNW,295,1.0,4.0,54,0.00,,,0.00,weatherlink.com 1.10,2013-01-04 16:49:00,
2013-01-04 12:04:00,38.0,22.0,30.51,WNW,295,2.0,6.0,53,0.00,,,0.00,weatherlink.com 1.10,2013-01-04 17:04:00,
2013-01-04 12:19:00,38.3,22.0,30.50,North,11,0.0,8.0,52,0.00,,,0.00,weatherlink.com 1.10,2013-01-04 17:19:00,
2013-01-04 12:34:00,38.1,22.0,30.49,WNW,297,1.0,6.0,53,0.00,,,0.00,weatherlink.com 1.10,2013-01-04 17:34:00,
2013-01-04 12:49:00,39.5,23.0,30.49,NNW,338,3.0,7.0,52,0.00,,,0.00,weatherlink.com 1.10,2013-01-04 17:49:00,
2013-01-04 13:04:00,40.6,23.0,30.48,North,4,2.0,6.0,50,0.00,,,0.00,weatherlink.com 1.10,2013-01-04 18:04:00,
2013-01-04 13:19:00,41.0,24.0,30.48,NE,51,0.0,7.0,51,0.00,,,0.00,weatherlink.com 1.10,2013-01-04 18:19:00,
2013-01-04 13:34:00,41.5,24.0,30.46,NW,304,3.0,7.0,51,0.00,,,0.00,weatherlink.com 1.10,2013-01-04 18:34:00,
2013-01-04 13:49:00,43.1,24.0,30.46,NW,307,1.0,5.0,48,0.00,,,0.00,weatherlink.com 1.10,2013-01-04 18:49:00,
2013-01-04 14:04:00,41.8,24.0,30.45,WNW,285,6.0,6.0,49,0.00,,,0.00,weatherlink.com 1.10,2013-01-04 19:04:00,
2013-01-04 14:19:00,41.6,25.0,30.45,NE,35,1.0,6.0,52,0.00,,,0.00,weatherlink.com 1.10,2013-01-04 19:19:00,
2013-01-04 14:34:00,43.1,25.0,30.45,ESE,113,0.0,3.0,50,0.00,,,0.00,weatherlink.com 1.10,2013-01-04 19:34:00,
2013-01-04 14:49:00,43.5,25.0,30.45,North,10,1.0,3.0,48,0.00,,,0.00,weatherlink.com 1.10,2013-01-04 19:49:00,
2013-01-04 15:04:00,44.0,26.0,30.45,NE,50,1.0,5.0,49,0.00,,,0.00,weatherlink.com 1.10,2013-01-04 20:04:00,
2013-01-04 15:19:00,44.3,25.0,30.45,NNE,21,2.0,6.0,47,0.00,,,0.00,weatherlink.com 1.10,2013-01-04 20:19:00,
2013-01-04 15:35:00,44.8,25.0,30.46,NE,51,2.0,3.0,47,0.00,,,0.00,weatherlink.com 1.10,2013-01-04 20:35:00,
2013-01-04 15:50:00,43.4,25.0,30.46,NNW,340,0.0,6.0,49,0.00,,,0.00,weatherlink.com 1.10,2013-01-04 20:50:00,
2013-01-04 16:05:00,42.5,23.0,30.46,North,359,1.0,7.0,47,0.00,,,0.00,weatherlink.com 1.10,2013-01-04 21:05:00,
2013-01-04 16:21:00,42.8,25.0,30.46,NNW,339,2.0,4.0,49,0.00,,,0.00,weatherlink.com 1.10,2013-01-04 21:21:00,
2013-01-04 16:35:00,42.7,25.0,30.46,NNE,23,0.0,2.0,49,0.00,,,0.00,weatherlink.com 1.10,2013-01-04 21:35:00,
2013-01-04 16:50:00,41.4,22.0,30.46,North,360,3.0,6.0,47,0.00,,,0.00,weatherlink.com 1.10,2013-01-04 21:50:00,
2013-01-04 17:05:00,40.6,23.0,30.46,NNW,328,0.0,4.0,49,0.00,,,0.00,weatherlink.com 1.10,2013-01-04 22:05:00,
2013-01-04 17:20:00,40.4,22.0,30.47,WNW,300,1.0,5.0,49,0.00,,,0.00,weatherlink.com 1.10,2013-01-04 22:20:00,
2013-01-04 17:35:00,39.3,22.0,30.46,North,349,5.0,6.0,50,0.00,,,0.00,weatherlink.com 1.10,2013-01-04 22:35:00,
2013-01-04 17:50:00,38.3,21.0,30.48,North,349,5.0,9.0,51,0.00,,,0.00,weatherlink.com 1.10,2013-01-04 22:50:00,
2013-01-04 18:05:00,38.2,21.0,30.47,NE,44,2.0,6.0,51,0.00,,,0.00,weatherlink.com 1.10,2013-01-04 23:05:00,
2013-01-04 18:20:00,37.8,22.0,30.48,North,1,4.0,6.0,53,0.00,,,0.00,weatherlink.com 1.10,2013-01-04 23:20:00,
2013-01-04 18:35:00,37.5,22.0,30.48,West,281,1.0,7.0,54,0.00,,,0.00,weatherlink.com 1.10,2013-01-04 23:35:00,
2013-01-04 18:50:00,37.4,22.0,30.48,NNW,348,2.0,5.0,53,0.00,,,0.00,weatherlink.com 1.10,2013-01-04 23:50:00,
2013-01-04 19:05:00,37.2,22.0,30.48,North,356,4.0,4.0,54,0.00,,,0.00,weatherlink.com 1.10,2013-01-05 00:05:00,
2013-01-04 19:20:00,36.5,22.0,30.49,North,11,1.0,4.0,56,0.00,,,0.00,weatherlink.com 1.10,2013-01-05 00:20:00,
2013-01-04 19:35:00,36.4,22.0,30.49,NNE,13,3.0,7.0,56,0.00,,,0.00,weatherlink.com 1.10,2013-01-05 00:35:00,
2013-01-04 19:50:00,36.3,22.0,30.49,North,351,2.0,6.0,56,0.00,,,0.00,weatherlink.com 1.10,2013-01-05 00:50:00,
2013-01-04 20:05:00,36.3,22.0,30.50,NNW,347,3.0,4.0,56,0.00,,,0.00,weatherlink.com 1.10,2013-01-05 01:05:00,
2013-01-04 20:20:00,36.2,22.0,30.50,North,349,1.0,4.0,56,0.00,,,0.00,weatherlink.com 1.10,2013-01-05 01:20:00,
2013-01-04 20:35:00,36.0,22.0,30.50,North,350,3.0,4.0,56,0.00,,,0.00,weatherlink.com 1.10,2013-01-05 01:35:00,
2013-01-04 20:50:00,35.3,22.0,30.50,NNW,340,1.0,3.0,58,0.00,,,0.00,weatherlink.com 1.10,2013-01-05 01:50:00,
2013-01-04 21:05:00,35.1,22.0,30.50,NW,304,2.0,3.0,59,0.00,,,0.00,weatherlink.com 1.10,2013-01-05 02:05:00,
2013-01-04 21:20:00,35.2,22.0,30.50,NW,304,3.0,3.0,58,0.00,,,0.00,weatherlink.com 1.10,2013-01-05 02:20:00,
2013-01-04 21:35:00,35.2,22.0,30.50,WNW,301,3.0,3.0,59,0.00,,,0.00,weatherlink.com 1.10,2013-01-05 02:35:00,
2013-01-04 21:50:00,35.2,22.0,30.50,WNW,300,3.0,4.0,58,0.00,,,0.00,weatherlink.com 1.10,2013-01-05 02:50:00,
2013-01-04 22:05:00,34.5,22.0,30.50,NW,304,3.0,4.0,60,0.00,,,0.00,weatherlink.com 1.10,2013-01-05 03:05:00,
2013-01-04 22:20:00,34.0,22.0,30.50,WNW,297,4.0,4.0,61,0.00,,,0.00,weatherlink.com 1.10,2013-01-05 03:20:00,
2013-01-04 22:35:00,34.2,22.0,30.50,NW,310,3.0,4.0,61,0.00,,,0.00,weatherlink.com 1.10,2013-01-05 03:35:00,
2013-01-04 22:50:00,34.1,22.0,30.50,NNW,335,2.0,5.0,61,0.00,,,0.00,weatherlink.com 1.10,2013-01-05 03:50:00,
2013-01-04 23:05:00,34.8,22.0,30.50,North,354,2.0,4.0,59,0.00,,,0.00,weatherlink.com 1.10,2013-01-05 04:05:00,
2013-01-04 23:20:00,34.8,22.0,30.50,North,4,3.0,5.0,59,0.00,,,0.00,weatherlink.com 1.10,2013-01-05 04:20:00,
2013-01-04 23:35:00,34.8,22.0,30.50,North,9,3.0,4.0,59,0.00,,,0.00,weatherlink.com 1.10,2013-01-05 04:35:00,
2013-01-04 23:50:00,35.1,21.0,30.50,North,6,1.0,3.0,58,0.00,,,0.00,weatherlink.com 1.10,2013-01-05 04:50:00,